Terminal Aerodrome Forecast
Issued by NWS

Home | Current Version | Previous Version | Text Only | Print | Product List | Glossary On
Versions: 1 2 3 4 5 6 7 8 9 10 11 12
000
FTUS44 KTSA 040520
TAFBVO
TAF
KBVO 040520Z 0406/0506 00000KT P6SM SCT045
     FM041400 07005KT P6SM FEW250
     FM041800 12006KT P6SM SCT050
     FM050100 00000KT P6SM FEW250=

USA.gov is the U.S. government's official web portal to all federal, state and local government web resources and services.